BIRK/RKV METAR and TAF weather

Enter ICAO airport designator
Station Type Date Time Source
BIRK METAR 2019/10/16 19:00 UTC NOAA

BIRK 161900Z 33004KT CAVOK 10/03 Q1000


Station Type Date Time Source
BIRK Decoded METAR 2019/10/16 19:00 UTC NOAA

Reykjavik, Iceland (BIRK) 64-08N 021-54W 61M
Oct 16, 2019 - 03:00 PM EDT / 2019.10.16 1900 UTC
Wind: from the NNW (330 degrees) at 5 MPH (4 KT):0
Visibility: greater than 7 mile(s):0
Temperature: 50 F (10 C)
Dew Point: 37 F (3 C)
Relative Humidity: 61%
Pressure (altimeter): 29.53 in. Hg (1000 hPa)
ob: BIRK 161900Z 33004KT CAVOK 10/03 Q1000
cycle: 19

Station Type Date Time Source
BIRK TAF 2019/10/16 21:45 UTC NOAA

TAF BIRK 161941Z 1621/1721 09005KT 9999 FEW040 TX09/1715Z TN05/1709Z

Example: see airport list